sensor_id;sensor_type;location;lat;lon;timestamp;pressure;altitude;pressure_sealevel;temperature;humidity
26711;BME280;18311;52.754;18.118;2022-12-10T00:02:15;99897.94;;;4.33;100.00
26711;BME280;18311;52.754;18.118;2022-12-10T00:04:46;99890.56;;;4.13;100.00
26711;BME280;18311;52.754;18.118;2022-12-10T00:07:17;99886.57;;;4.29;100.00
26711;BME280;18311;52.754;18.118;2022-12-10T00:09:48;99890.49;;;4.16;100.00
26711;BME280;18311;52.754;18.118;2022-12-10T00:12:18;99888.48;;;4.24;100.00
26711;BME280;18311;52.754;18.118;2022-12-10T00:14:49;99892.98;;;4.21;100.00
26711;BME280;18311;52.754;18.118;2022-12-10T00:17:20;99898.20;;;4.24;100.00
26711;BME280;18311;52.754;18.118;2022-12-10T00:19:51;99893.77;;;4.24;100.00
26711;BME280;18311;52.754;18.118;2022-12-10T00:22:21;99886.39;;;4.04;100.00
26711;BME280;18311;52.754;18.118;2022-12-10T00:24:52;99884.23;;;4.19;100.00
26711;BME280;18311;52.754;18.118;2022-12-10T00:27:22;99888.48;;;4.24;100.00
26711;BME280;18311;52.754;18.118;2022-12-10T00:29:53;99897.82;;;4.38;100.00
26711;BME280;18311;52.754;18.118;2022-12-10T00:32:23;99893.03;;;4.19;100.00
26711;BME280;18311;52.754;18.118;2022-12-10T00:34:53;99891.78;;;4.32;100.00
26711;BME280;18311;52.754;18.118;2022-12-10T00:37:25;99896.11;;;4.35;100.00
26711;BME280;18311;52.754;18.118;2022-12-10T00:39:56;99902.45;;;4.29;100.00
26711;BME280;18311;52.754;18.118;2022-12-10T00:42:26;99897.08;;;4.32;100.00
26711;BME280;18311;52.754;18.118;2022-12-10T00:44:56;99888.88;;;4.42;100.00
26711;BME280;18311;52.754;18.118;2022-12-10T00:47:28;99889.80;;;4.41;100.00
26711;BME280;18311;52.754;18.118;2022-12-10T00:49:59;99892.56;;;4.36;100.00
26711;BME280;18311;52.754;18.118;2022-12-10T00:52:29;99894.39;;;4.34;100.00
26711;BME280;18311;52.754;18.118;2022-12-10T00:55:01;99883.19;;;4.24;100.00
26711;BME280;18311;52.754;18.118;2022-12-10T00:57:31;99893.06;;;4.18;100.00
26711;BME280;18311;52.754;18.118;2022-12-10T01:00:02;99893.25;;;4.11;100.00
26711;BME280;18311;52.754;18.118;2022-12-10T01:02:35;99890.72;;;4.07;100.00
26711;BME280;18311;52.754;18.118;2022-12-10T01:05:05;99888.97;;;4.07;100.00
26711;BME280;18311;52.754;18.118;2022-12-10T01:07:36;99893.77;;;4.24;100.00
26711;BME280;18311;52.754;18.118;2022-12-10T01:10:07;99893.66;;;3.96;100.00
26711;BME280;18311;52.754;18.118;2022-12-10T01:12:38;99889.48;;;3.87;100.00
26711;BME280;18311;52.754;18.118;2022-12-10T01:15:08;99884.19;;;3.87;100.00
26711;BME280;18311;52.754;18.118;2022-12-10T01:17:39;99889.11;;;4.01;100.00
26711;BME280;18311;52.754;18.118;2022-12-10T01:20:10;99887.33;;;4.02;100.00
26711;BME280;18311;52.754;18.118;2022-12-10T01:22:42;99890.30;;;3.89;100.00
26711;BME280;18311;52.754;18.118;2022-12-10T01:25:14;99887.62;;;3.91;100.00
26711;BME280;18311;52.754;18.118;2022-12-10T01:27:44;99882.18;;;3.97;100.00
26711;BME280;18311;52.754;18.118;2022-12-10T01:30:15;99890.08;;;3.99;100.00
26711;BME280;18311;52.754;18.118;2022-12-10T01:32:45;99881.22;;;4.00;100.00
26711;BME280;18311;52.754;18.118;2022-12-10T01:35:16;99885.61;;;4.01;100.00
26711;BME280;18311;52.754;18.118;2022-12-10T01:37:46;99884.86;;;3.95;100.00
26711;BME280;18311;52.754;18.118;2022-12-10T01:40:17;99881.61;;;3.84;100.00
26711;BME280;18311;52.754;18.118;2022-12-10T01:42:47;99883.60;;;4.09;100.00
26711;BME280;18311;52.754;18.118;2022-12-10T01:45:18;99885.68;;;3.97;100.00
26711;BME280;18311;52.754;18.118;2022-12-10T01:47:49;99879.53;;;3.97;100.00
26711;BME280;18311;52.754;18.118;2022-12-10T01:50:21;99882.62;;;4.13;100.00
26711;BME280;18311;52.754;18.118;2022-12-10T01:52:51;99880.24;;;4.04;100.00
26711;BME280;18311;52.754;18.118;2022-12-10T01:55:52;99883.60;;;4.09;100.00
26711;BME280;18311;52.754;18.118;2022-12-10T01:58:19;99877.53;;;4.05;100.00
26711;BME280;18311;52.754;18.118;2022-12-10T02:01:01;99881.55;;;4.20;100.00
26711;BME280;18311;52.754;18.118;2022-12-10T02:12:11;99883.05;;;4.60;100.00
26711;BME280;18311;52.754;18.118;2022-12-10T02:14:53;99881.74;;;4.44;100.00
26711;BME280;18311;52.754;18.118;2022-12-10T02:20:19;99879.64;;;4.25;100.00
26711;BME280;18311;52.754;18.118;2022-12-10T02:22:53;99883.92;;;4.29;100.00
26711;BME280;18311;52.754;18.118;2022-12-10T02:25:32;99884.93;;;4.25;100.00
26711;BME280;18311;52.754;18.118;2022-12-10T02:30:54;99887.70;;;4.21;100.00
26711;BME280;18311;52.754;18.118;2022-12-10T02:33:27;99881.70;;;4.14;100.00
26711;BME280;18311;52.754;18.118;2022-12-10T02:35:58;99884.08;;;4.25;100.00
26711;BME280;18311;52.754;18.118;2022-12-10T02:38:32;99881.50;;;4.22;100.00
26711;BME280;18311;52.754;18.118;2022-12-10T02:41:06;99878.08;;;4.18;100.00
26711;BME280;18311;52.754;18.118;2022-12-10T02:43:37;99893.37;;;4.07;100.00
26711;BME280;18311;52.754;18.118;2022-12-10T02:46:08;99893.25;;;4.11;100.00
26711;BME280;18311;52.754;18.118;2022-12-10T02:48:40;99894.03;;;4.15;100.00
26711;BME280;18311;52.754;18.118;2022-12-10T02:51:11;99887.77;;;4.18;100.00
26711;BME280;18311;52.754;18.118;2022-12-10T02:53:43;99894.33;;;4.04;100.00
26711;BME280;18311;52.754;18.118;2022-12-10T03:02:02;99882.74;;;4.08;100.00
26711;BME280;18311;52.754;18.118;2022-12-10T03:04:39;99883.30;;;4.21;100.00
26711;BME280;18311;52.754;18.118;2022-12-10T03:07:10;99877.07;;;4.22;100.00
26711;BME280;18311;52.754;18.118;2022-12-10T03:09:45;99878.78;;;4.25;100.00
26711;BME280;18311;52.754;18.118;2022-12-10T03:12:21;99877.03;;;4.24;100.00
26711;BME280;18311;52.754;18.118;2022-12-10T03:14:51;99869.44;;;4.11;100.00
26711;BME280;18311;52.754;18.118;2022-12-10T03:17:24;99872.05;;;4.13;100.00
26711;BME280;18311;52.754;18.118;2022-12-10T03:19:56;99868.80;;;4.02;100.00
26711;BME280;18311;52.754;18.118;2022-12-10T03:22:29;99872.67;;;3.90;100.00
26711;BME280;18311;52.754;18.118;2022-12-10T03:25:01;99876.61;;;3.73;100.00
26711;BME280;18311;52.754;18.118;2022-12-10T03:27:32;99874.61;;;3.83;100.00
26711;BME280;18311;52.754;18.118;2022-12-10T03:30:04;99878.64;;;3.96;100.00
26711;BME280;18311;52.754;18.118;2022-12-10T03:32:36;99878.15;;;3.82;100.00
26711;BME280;18311;52.754;18.118;2022-12-10T03:35:08;99875.54;;;3.81;100.00
26711;BME280;18311;52.754;18.118;2022-12-10T03:37:39;99875.36;;;3.88;100.00
26711;BME280;18311;52.754;18.118;2022-12-10T03:40:11;99874.89;;;3.72;100.00
26711;BME280;18311;52.754;18.118;2022-12-10T03:42:42;99877.18;;;3.86;100.00
26711;BME280;18311;52.754;18.118;2022-12-10T03:45:14;99876.22;;;3.89;100.00
26711;BME280;18311;52.754;18.118;2022-12-10T03:47:44;99877.86;;;3.93;100.00
26711;BME280;18311;52.754;18.118;2022-12-10T03:50:15;99887.91;;;3.80;100.00
26711;BME280;18311;52.754;18.118;2022-12-10T03:52:45;99879.69;;;3.91;100.00
26711;BME280;18311;52.754;18.118;2022-12-10T03:55:17;99889.41;;;3.90;100.00
26711;BME280;18311;52.754;18.118;2022-12-10T03:57:47;99885.27;;;3.80;100.00
26711;BME280;18311;52.754;18.118;2022-12-10T04:00:19;99881.50;;;3.89;100.00
26711;BME280;18311;52.754;18.118;2022-12-10T04:02:50;99888.44;;;3.93;100.00
26711;BME280;18311;52.754;18.118;2022-12-10T04:05:21;99888.41;;;3.94;100.00
26711;BME280;18311;52.754;18.118;2022-12-10T04:07:51;99890.44;;;3.85;100.00
26711;BME280;18311;52.754;18.118;2022-12-10T04:10:22;99888.63;;;3.87;100.00
26711;BME280;18311;52.754;18.118;2022-12-10T04:12:52;99887.77;;;3.86;100.00
26711;BME280;18311;52.754;18.118;2022-12-10T04:15:24;99899.06;;;3.91;100.00
26711;BME280;18311;52.754;18.118;2022-12-10T04:18:14;99892.05;;;3.90;100.00
26711;BME280;18311;52.754;18.118;2022-12-10T04:20:44;99893.70;;;3.94;100.00
26711;BME280;18311;52.754;18.118;2022-12-10T04:23:33;99891.63;;;3.73;100.00
26711;BME280;18311;52.754;18.118;2022-12-10T04:26:22;99896.59;;;3.85;100.00
26711;BME280;18311;52.754;18.118;2022-12-10T04:29:11;99897.38;;;3.89;100.00
26711;BME280;18311;52.754;18.118;2022-12-10T04:31:42;99898.62;;;3.74;100.00
26711;BME280;18311;52.754;18.118;2022-12-10T04:34:12;99902.95;;;3.42;100.00
26711;BME280;18311;52.754;18.118;2022-12-10T04:36:43;99895.37;;;3.64;100.00
26711;BME280;18311;52.754;18.118;2022-12-10T04:39:14;99899.83;;;3.62;100.00
26711;BME280;18311;52.754;18.118;2022-12-10T04:41:46;99902.55;;;3.59;100.00
26711;BME280;18311;52.754;18.118;2022-12-10T04:44:17;99893.48;;;3.69;100.00
26711;BME280;18311;52.754;18.118;2022-12-10T04:46:49;99889.98;;;3.69;100.00
26711;BME280;18311;52.754;18.118;2022-12-10T04:49:19;99891.18;;;3.55;100.00
26711;BME280;18311;52.754;18.118;2022-12-10T04:51:50;99893.03;;;3.52;100.00
26711;BME280;18311;52.754;18.118;2022-12-10T04:54:22;99901.23;;;3.41;100.00
26711;BME280;18311;52.754;18.118;2022-12-10T04:56:53;99886.72;;;3.57;100.00
26711;BME280;18311;52.754;18.118;2022-12-10T04:59:23;99891.69;;;3.70;100.00
26711;BME280;18311;52.754;18.118;2022-12-10T05:01:56;99889.56;;;3.50;100.00
26711;BME280;18311;52.754;18.118;2022-12-10T05:04:27;99893.50;;;3.32;100.00
26711;BME280;18311;52.754;18.118;2022-12-10T05:06:57;99896.77;;;3.43;100.00
26711;BME280;18311;52.754;18.118;2022-12-10T05:09:28;99898.72;;;3.35;100.00
26711;BME280;18311;52.754;18.118;2022-12-10T05:11:59;99898.75;;;3.33;100.00
26711;BME280;18311;52.754;18.118;2022-12-10T05:14:30;99902.39;;;3.29;100.00
26711;BME280;18311;52.754;18.118;2022-12-10T05:17:02;99897.77;;;3.39;100.00
26711;BME280;18311;52.754;18.118;2022-12-10T05:19:32;99886.09;;;3.48;100.00
26711;BME280;18311;52.754;18.118;2022-12-10T05:22:03;99900.80;;;3.22;100.00
26711;BME280;18311;52.754;18.118;2022-12-10T05:24:55;99915.38;;;3.38;100.00
26711;BME280;18311;52.754;18.118;2022-12-10T05:27:35;99904.87;;;3.35;100.00
26711;BME280;18311;52.754;18.118;2022-12-10T05:30:10;99897.67;;;3.42;100.00
26711;BME280;18311;52.754;18.118;2022-12-10T05:32:44;99906.45;;;3.78;100.00
26711;BME280;18311;52.754;18.118;2022-12-10T05:35:16;99908.27;;;3.40;100.00
26711;BME280;18311;52.754;18.118;2022-12-10T05:37:49;99918.95;;;3.37;100.00
26711;BME280;18311;52.754;18.118;2022-12-10T05:40:20;99923.63;;;3.25;100.00
26711;BME280;18311;52.754;18.118;2022-12-10T05:42:56;99919.30;;;3.22;100.00
26711;BME280;18311;52.754;18.118;2022-12-10T05:45:31;99926.02;;;3.35;100.00
26711;BME280;18311;52.754;18.118;2022-12-10T05:48:03;99927.80;;;3.35;100.00
26711;BME280;18311;52.754;18.118;2022-12-10T05:50:37;99922.77;;;3.24;100.00
26711;BME280;18311;52.754;18.118;2022-12-10T05:53:12;99933.59;;;3.13;100.00
26711;BME280;18311;52.754;18.118;2022-12-10T05:55:47;99923.88;;;3.14;100.00
26711;BME280;18311;52.754;18.118;2022-12-10T05:58:20;99921.81;;;3.27;100.00
26711;BME280;18311;52.754;18.118;2022-12-10T06:00:53;99927.16;;;3.25;100.00
26711;BME280;18311;52.754;18.118;2022-12-10T06:03:27;99919.01;;;3.34;100.00
26711;BME280;18311;52.754;18.118;2022-12-10T06:06:02;99922.12;;;3.52;100.00
26711;BME280;18311;52.754;18.118;2022-12-10T06:08:41;99927.56;;;3.44;100.00
26711;BME280;18311;52.754;18.118;2022-12-10T06:11:13;99923.27;;;3.40;100.00
26711;BME280;18311;52.754;18.118;2022-12-10T06:13:47;99922.15;;;3.50;100.00
26711;BME280;18311;52.754;18.118;2022-12-10T06:16:21;99922.52;;;3.35;100.00
26711;BME280;18311;52.754;18.118;2022-12-10T06:18:55;99929.74;;;3.27;100.00
26711;BME280;18311;52.754;18.118;2022-12-10T06:21:29;99934.23;;;3.23;100.00
26711;BME280;18311;52.754;18.118;2022-12-10T06:24:04;99933.91;;;3.37;100.00
26711;BME280;18311;52.754;18.118;2022-12-10T06:26:40;99931.14;;;3.43;100.00
26711;BME280;18311;52.754;18.118;2022-12-10T06:29:14;99931.17;;;3.42;100.00
26711;BME280;18311;52.754;18.118;2022-12-10T06:31:49;99926.17;;;3.29;100.00
26711;BME280;18311;52.754;18.118;2022-12-10T06:34:21;99921.66;;;3.34;100.00
26711;BME280;18311;52.754;18.118;2022-12-10T06:36:54;99930.11;;;3.49;100.00
26711;BME280;18311;52.754;18.118;2022-12-10T06:39:28;99934.55;;;3.48;100.00
26711;BME280;18311;52.754;18.118;2022-12-10T06:42:21;99936.16;;;3.54;100.00
26711;BME280;18311;52.754;18.118;2022-12-10T06:44:53;99945.58;;;3.66;100.00
26711;BME280;18311;52.754;18.118;2022-12-10T06:47:28;99930.67;;;3.62;100.00
26711;BME280;18311;52.754;18.118;2022-12-10T06:50:01;99944.95;;;3.54;100.00
26711;BME280;18311;52.754;18.118;2022-12-10T06:52:33;99951.45;;;3.77;100.00
26711;BME280;18311;52.754;18.118;2022-12-10T06:55:05;99950.87;;;3.66;100.00
26711;BME280;18311;52.754;18.118;2022-12-10T06:57:41;99953.08;;;3.47;100.00
26711;BME280;18311;52.754;18.118;2022-12-10T07:00:14;99958.33;;;3.84;100.00
26711;BME280;18311;52.754;18.118;2022-12-10T07:02:50;99956.91;;;3.71;100.00
26711;BME280;18311;52.754;18.118;2022-12-10T07:05:24;99957.05;;;3.65;100.00
26711;BME280;18311;52.754;18.118;2022-12-10T07:07:59;99957.73;;;3.73;100.00
26711;BME280;18311;52.754;18.118;2022-12-10T07:10:32;99954.54;;;3.60;100.00
26711;BME280;18311;52.754;18.118;2022-12-10T07:13:06;99961.51;;;3.63;100.00
26711;BME280;18311;52.754;18.118;2022-12-10T07:15:41;99969.87;;;3.44;100.00
26711;BME280;18311;52.754;18.118;2022-12-10T07:18:14;99962.03;;;3.41;100.00
26711;BME280;18311;52.754;18.118;2022-12-10T07:20:47;99958.00;;;3.62;100.00
26711;BME280;18311;52.754;18.118;2022-12-10T07:23:24;99953.14;;;3.44;100.00
26711;BME280;18311;52.754;18.118;2022-12-10T07:25:57;99955.69;;;3.48;100.00
26711;BME280;18311;52.754;18.118;2022-12-10T07:28:29;99960.98;;;3.48;100.00
26711;BME280;18311;52.754;18.118;2022-12-10T07:31:05;99955.98;;;3.36;100.00
26711;BME280;18311;52.754;18.118;2022-12-10T07:33:39;99955.76;;;3.45;100.00
26711;BME280;18311;52.754;18.118;2022-12-10T07:36:12;99953.34;;;3.36;100.00
26711;BME280;18311;52.754;18.118;2022-12-10T07:38:44;99953.94;;;3.47;100.00
26711;BME280;18311;52.754;18.118;2022-12-10T07:41:18;99949.29;;;3.19;100.00
26711;BME280;18311;52.754;18.118;2022-12-10T07:43:50;99942.31;;;3.54;100.00
26711;BME280;18311;52.754;18.118;2022-12-10T07:46:26;99953.17;;;3.42;100.00
26711;BME280;18311;52.754;18.118;2022-12-10T07:49:04;99950.82;;;3.30;100.00
26711;BME280;18311;52.754;18.118;2022-12-10T07:51:39;99948.52;;;3.53;100.00
26711;BME280;18311;52.754;18.118;2022-12-10T07:54:13;99945.09;;;3.50;100.00
26711;BME280;18311;52.754;18.118;2022-12-10T07:56:45;99949.61;;;3.45;100.00
26711;BME280;18311;52.754;18.118;2022-12-10T07:59:17;99948.17;;;3.30;100.00
26711;BME280;18311;52.754;18.118;2022-12-10T08:01:51;99951.78;;;3.27;100.00
26711;BME280;18311;52.754;18.118;2022-12-10T08:04:23;99947.63;;;3.53;100.00
26711;BME280;18311;52.754;18.118;2022-12-10T08:06:57;99946.17;;;3.41;100.00
26711;BME280;18311;52.754;18.118;2022-12-10T08:09:30;99949.67;;;3.42;100.00
26711;BME280;18311;52.754;18.118;2022-12-10T08:12:04;99948.94;;;3.35;100.00
26711;BME280;18311;52.754;18.118;2022-12-10T08:14:37;99954.55;;;3.21;100.00
26711;BME280;18311;52.754;18.118;2022-12-10T08:17:09;99960.53;;;3.29;100.00
26711;BME280;18311;52.754;18.118;2022-12-10T08:19:43;99957.41;;;3.12;100.00
26711;BME280;18311;52.754;18.118;2022-12-10T08:22:16;99962.67;;;3.51;100.00
26711;BME280;18311;52.754;18.118;2022-12-10T08:24:46;99965.39;;;3.09;100.00
26711;BME280;18311;52.754;18.118;2022-12-10T08:27:22;99966.89;;;3.20;100.00
26711;BME280;18311;52.754;18.118;2022-12-10T08:29:56;99975.59;;;3.26;100.00
26711;BME280;18311;52.754;18.118;2022-12-10T08:32:30;99984.28;;;3.31;100.00
26711;BME280;18311;52.754;18.118;2022-12-10T08:35:07;99975.31;;;3.38;100.00
26711;BME280;18311;52.754;18.118;2022-12-10T08:37:43;99971.59;;;3.08;100.00
26711;BME280;18311;52.754;18.118;2022-12-10T08:40:18;99973.50;;;3.40;100.00
26711;BME280;18311;52.754;18.118;2022-12-10T08:42:59;99975.31;;;3.38;100.00
26711;BME280;18311;52.754;18.118;2022-12-10T08:45:30;99971.96;;;3.30;100.00
26711;BME280;18311;52.754;18.118;2022-12-10T08:48:05;99967.28;;;3.43;100.00
26711;BME280;18311;52.754;18.118;2022-12-10T08:50:39;99971.05;;;3.32;100.00
26711;BME280;18311;52.754;18.118;2022-12-10T08:53:19;99969.45;;;3.25;100.00
26711;BME280;18311;52.754;18.118;2022-12-10T08:55:54;99978.59;;;3.09;100.00
26711;BME280;18311;52.754;18.118;2022-12-10T08:58:27;99977.98;;;3.36;100.00
26711;BME280;18311;52.754;18.118;2022-12-10T09:01:10;99989.16;;;3.09;100.00
26711;BME280;18311;52.754;18.118;2022-12-10T09:03:43;99983.18;;;3.41;100.00
26711;BME280;18311;52.754;18.118;2022-12-10T09:06:18;99981.43;;;3.40;100.00
26711;BME280;18311;52.754;18.118;2022-12-10T09:08:51;99984.20;;;2.93;100.00
26711;BME280;18311;52.754;18.118;2022-12-10T09:11:27;99988.09;;;3.17;100.00
26711;BME280;18311;52.754;18.118;2022-12-10T09:14:01;99978.84;;;3.37;100.00
26711;BME280;18311;52.754;18.118;2022-12-10T09:16:36;99985.88;;;3.38;100.00
26711;BME280;18311;52.754;18.118;2022-12-10T09:19:12;99976.23;;;3.35;100.00
26711;BME280;18311;52.754;18.118;2022-12-10T09:21:48;99979.06;;;3.28;100.00
26711;BME280;18311;52.754;18.118;2022-12-10T09:24:23;99984.69;;;3.12;100.00
26711;BME280;18311;52.754;18.118;2022-12-10T09:26:55;99982.47;;;3.33;100.00
26711;BME280;18311;52.754;18.118;2022-12-10T09:29:28;99975.22;;;3.43;100.00
26711;BME280;18311;52.754;18.118;2022-12-10T09:32:03;99984.50;;;3.21;100.00
26711;BME280;18311;52.754;18.118;2022-12-10T09:34:36;99981.95;;;3.17;100.00
26711;BME280;18311;52.754;18.118;2022-12-10T09:37:12;99987.98;;;3.24;100.00
26711;BME280;18311;52.754;18.118;2022-12-10T09:39:44;99982.69;;;3.24;100.00
26711;BME280;18311;52.754;18.118;2022-12-10T09:42:38;99984.80;;;3.08;100.00
26711;BME280;18311;52.754;18.118;2022-12-10T09:48:20;99976.61;;;3.20;100.00
26711;BME280;18311;52.754;18.118;2022-12-10T09:53:36;99971.62;;;3.45;100.00
26711;BME280;18311;52.754;18.118;2022-12-10T09:56:18;99978.78;;;3.40;100.00
26711;BME280;18311;52.754;18.118;2022-12-10T09:58:47;99976.14;;;3.40;100.00
26711;BME280;18311;52.754;18.118;2022-12-10T10:01:22;99966.31;;;3.08;100.00
26711;BME280;18311;52.754;18.118;2022-12-10T10:03:54;99970.52;;;3.16;100.00
26711;BME280;18311;52.754;18.118;2022-12-10T10:06:27;99960.38;;;3.35;100.00
26711;BME280;18311;52.754;18.118;2022-12-10T10:09:00;99966.12;;;3.15;100.00
26711;BME280;18311;52.754;18.118;2022-12-10T10:11:34;99970.52;;;3.16;100.00
26711;BME280;18311;52.754;18.118;2022-12-10T10:14:10;99966.74;;;3.27;100.00
26711;BME280;18311;52.754;18.118;2022-12-10T10:16:44;99965.85;;;3.28;100.00
26711;BME280;18311;52.754;18.118;2022-12-10T10:19:26;99970.25;;;3.29;100.00
26711;BME280;18311;52.754;18.118;2022-12-10T10:21:52;99961.30;;;3.34;100.00
26711;BME280;18311;52.754;18.118;2022-12-10T10:24:39;99966.55;;;3.36;100.00
26711;BME280;18311;52.754;18.118;2022-12-10T10:27:28;99965.59;;;3.38;100.00
26711;BME280;18311;52.754;18.118;2022-12-10T10:29:57;99969.23;;;3.34;100.00
26711;BME280;18311;52.754;18.118;2022-12-10T10:35:23;99961.33;;;3.33;100.00
26711;BME280;18311;52.754;18.118;2022-12-10T10:38:06;99950.41;;;3.48;100.00
26711;BME280;18311;52.754;18.118;2022-12-10T10:40:45;99960.81;;;3.54;100.00
26711;BME280;18311;52.754;18.118;2022-12-10T10:43:22;99950.59;;;3.76;100.00
26711;BME280;18311;52.754;18.118;2022-12-10T10:46:01;99939.86;;;3.47;100.00
26711;BME280;18311;52.754;18.118;2022-12-10T10:48:34;99956.98;;;3.68;100.00
26711;BME280;18311;52.754;18.118;2022-12-10T10:53:50;99945.70;;;3.24;100.00
26711;BME280;18311;52.754;18.118;2022-12-10T10:56:41;99947.77;;;3.48;100.00
26711;BME280;18311;52.754;18.118;2022-12-10T10:59:24;99939.66;;;3.54;100.00
26711;BME280;18311;52.754;18.118;2022-12-10T11:01:54;99943.97;;;3.21;100.00
26711;BME280;18311;52.754;18.118;2022-12-10T11:07:03;99931.84;;;3.12;100.00
26711;BME280;18311;52.754;18.118;2022-12-10T11:09:36;99934.42;;;3.15;100.00
26711;BME280;18311;52.754;18.118;2022-12-10T11:12:20;99929.90;;;3.20;100.00
26711;BME280;18311;52.754;18.118;2022-12-10T11:14:43;99918.05;;;3.37;100.00
26711;BME280;18311;52.754;18.118;2022-12-10T11:17:22;99931.37;;;3.34;100.00
26711;BME280;18311;52.754;18.118;2022-12-10T11:19:59;99921.75;;;3.30;100.00
26711;BME280;18311;52.754;18.118;2022-12-10T11:22:33;99923.47;;;3.32;100.00
26711;BME280;18311;52.754;18.118;2022-12-10T11:25:05;99931.11;;;3.45;100.00
26711;BME280;18311;52.754;18.118;2022-12-10T11:30:25;99922.58;;;3.32;100.00
26711;BME280;18311;52.754;18.118;2022-12-10T11:33:02;99923.70;;;3.59;100.00
26711;BME280;18311;52.754;18.118;2022-12-10T11:35:39;99919.54;;;3.49;100.00
26711;BME280;18311;52.754;18.118;2022-12-10T11:40:59;99921.39;;;3.45;100.00
26711;BME280;18311;52.754;18.118;2022-12-10T11:43:47;99923.09;;;3.10;100.00
26711;BME280;18311;52.754;18.118;2022-12-10T11:55:17;99924.49;;;3.63;100.00
26711;BME280;18311;52.754;18.118;2022-12-10T11:57:56;99935.83;;;3.68;100.00
26711;BME280;18311;52.754;18.118;2022-12-10T12:00:23;99924.76;;;3.52;100.00
26711;BME280;18311;52.754;18.118;2022-12-10T12:03:09;99922.45;;;3.38;100.00
26711;BME280;18311;52.754;18.118;2022-12-10T12:19:39;99934.55;;;3.09;100.00
26711;BME280;18311;52.754;18.118;2022-12-10T12:22:16;99931.66;;;3.21;100.00
26711;BME280;18311;52.754;18.118;2022-12-10T12:24:47;99939.45;;;3.26;100.00
26711;BME280;18311;52.754;18.118;2022-12-10T12:27:35;99941.84;;;3.37;100.00
26711;BME280;18311;52.754;18.118;2022-12-10T12:30:06;99935.70;;;3.36;100.00
26711;BME280;18311;52.754;18.118;2022-12-10T12:35:58;99931.83;;;3.51;100.00
26711;BME280;18311;52.754;18.118;2022-12-10T12:38:32;99925.22;;;3.32;100.00
26711;BME280;18311;52.754;18.118;2022-12-10T12:41:05;99923.54;;;2.90;100.00
26711;BME280;18311;52.754;18.118;2022-12-10T12:43:50;99934.55;;;3.09;100.00
26711;BME280;18311;52.754;18.118;2022-12-10T12:46:33;99924.46;;;2.88;100.00
26711;BME280;18311;52.754;18.118;2022-12-10T12:49:10;99928.25;;;3.16;100.00
26711;BME280;18311;52.754;18.118;2022-12-10T12:51:53;99931.81;;;3.14;100.00
26711;BME280;18311;52.754;18.118;2022-12-10T12:54:14;99929.48;;;3.39;100.00
26711;BME280;18311;52.754;18.118;2022-12-10T12:57:03;99937.80;;;3.22;100.00
26711;BME280;18311;52.754;18.118;2022-12-10T13:16:46;99963.23;;;3.26;100.00
26711;BME280;18311;52.754;18.118;2022-12-10T13:42:58;99973.14;;;3.55;100.00
26711;BME280;18311;52.754;18.118;2022-12-10T13:45:47;99973.84;;;3.25;100.00
26711;BME280;18311;52.754;18.118;2022-12-10T13:51:06;99965.85;;;3.28;100.00
26711;BME280;18311;52.754;18.118;2022-12-10T13:59:52;99964.73;;;3.38;100.00
26711;BME280;18311;52.754;18.118;2022-12-10T14:02:30;99964.47;;;3.11;100.00
26711;BME280;18311;52.754;18.118;2022-12-10T14:06:05;99977.73;;;3.08;100.00
26711;BME280;18311;52.754;18.118;2022-12-10T14:07:44;99972.30;;;3.14;100.00
26711;BME280;18311;52.754;18.118;2022-12-10T14:10:17;99980.20;;;3.16;100.00
26711;BME280;18311;52.754;18.118;2022-12-10T14:12:49;99972.92;;;3.27;100.00
26711;BME280;18311;52.754;18.118;2022-12-10T14:15:27;99979.22;;;3.21;100.00
26711;BME280;18311;52.754;18.118;2022-12-10T14:18:00;99978.95;;;2.92;100.00
26711;BME280;18311;52.754;18.118;2022-12-10T14:20:26;99973.34;;;3.07;100.00
26711;BME280;18311;52.754;18.118;2022-12-10T14:23:04;99982.75;;;3.20;100.00
26711;BME280;18311;52.754;18.118;2022-12-10T14:25:53;99982.48;;;2.92;100.00
26711;BME280;18311;52.754;18.118;2022-12-10T14:28:24;99987.64;;;2.97;100.00
26711;BME280;18311;52.754;18.118;2022-12-10T14:30:55;99986.44;;;3.13;100.00
26711;BME280;18311;52.754;18.118;2022-12-10T14:33:25;99991.78;;;3.10;100.00
26711;BME280;18311;52.754;18.118;2022-12-10T14:36:03;99984.41;;;3.25;100.00
26711;BME280;18311;52.754;18.118;2022-12-10T14:38:33;99983.08;;;3.05;100.00
26711;BME280;18311;52.754;18.118;2022-12-10T14:41:04;99984.41;;;3.25;100.00
26711;BME280;18311;52.754;18.118;2022-12-10T14:43:38;99980.91;;;3.24;100.00
26711;BME280;18311;52.754;18.118;2022-12-10T14:46:22;99990.14;;;3.05;100.00
26711;BME280;18311;52.754;18.118;2022-12-10T14:48:52;99988.30;;;3.08;100.00
26711;BME280;18311;52.754;18.118;2022-12-10T14:51:30;99993.32;;;3.20;100.00
26711;BME280;18311;52.754;18.118;2022-12-10T14:53:58;99992.67;;;3.09;100.00
26711;BME280;18311;52.754;18.118;2022-12-10T14:56:32;99976.91;;;2.64;100.00
26711;BME280;18311;52.754;18.118;2022-12-10T14:59:05;99970.11;;;2.94;100.00
26711;BME280;18311;52.754;18.118;2022-12-10T15:01:41;99971.80;;;2.97;100.00
26711;BME280;18311;52.754;18.118;2022-12-10T15:04:14;99980.41;;;3.07;100.00
26711;BME280;18311;52.754;18.118;2022-12-10T15:06:48;99975.39;;;2.94;100.00
26711;BME280;18311;52.754;18.118;2022-12-10T15:09:26;99976.91;;;3.06;100.00
26711;BME280;18311;52.754;18.118;2022-12-10T15:11:54;99981.23;;;2.67;100.00
26711;BME280;18311;52.754;18.118;2022-12-10T15:14:27;99971.77;;;2.98;100.00
26711;BME280;18311;52.754;18.118;2022-12-10T15:16:58;99965.74;;;2.92;100.00
26711;BME280;18311;52.754;18.118;2022-12-10T15:19:33;99968.44;;;2.90;100.00
26711;BME280;18311;52.754;18.118;2022-12-10T15:22:19;99974.59;;;2.91;100.00